Aeroporto :
LOGIN :

Iscrizione | Disclaimer

   EN    FR    IT 

 










Sommario :    VFR   VFR Marginale   IFR   IFR Intensivo   IFR Molto Intensivo
Visibilità : 
Base nubi : 
>= 8 km
>= 3000ft
5 / 8 km
1000 / 3000 ft
1500m / 5 km
500 / 1000 ft
800 / 1500m
200 / 500 ft
< 800m
< 200 ft
Simboli :   Temporali  Nebbia  Neve Forte  Precipitazioni Forti  Vento > 20 kt
SIGMETs :   Varie  Temporali  Ghiacco  Turbolenza  Onda orograficha  Ceneri Vulcaniche







- Altitudine del aeroporto : 392 ft
- Codice IATA : CDG
- Carte del aeroporto


LFPG - Paris-Aeroport Charles De Gaulle

ULTIMO METAR :
  • 191630Z 21006KT 9999 FEW028 SCT260 11/04 Q1021 NOSIG

METARs OBSOLETI :
  • 191600Z 23006KT 200V270 9999 FEW028 12/04 Q1022 NOSIG
  • 191530Z 20008KT 170V230 9999 FEW028 11/04 Q1022 NOSIG
  • 191500Z 22008KT 180V240 9999 FEW028 12/04 Q1022 NOSIG
  • 191430Z 26006KT 230V310 9999 FEW029 12/04 Q1022 NOSIG
  • 191400Z 22007KT 180V240 9999 FEW029 11/03 Q1022 NOSIG

TAF TAF LFPG
Valido dal 19 a 12 ore il 20 a 18 ore UTC


191100Z 1912/2018 22005KT 9999 SCT018 TX12/1915Z TN01/2006Z
BECMG 1913/1915 SCT030
BECMG 2000/2002 4000 BR
TEMPO 2003/2010 2000 BR BKN003
PROB40
TEMPO 2004/2009 0500 FG BKN001
BECMG 2011/2013 8000 NSW SCT030
ATIS : +33 1 48 62 10 92
Nessun NOTAM noto per questo aeroporto.



MetMap, La meteo Aeronautica in un colpo d'occhio ! - Copyright ORBIFLY Dicembre 2007 - Disclaimer

ORBIFLY MET'MAP TEAM :

Programmazione e sviluppo : Alexandra Zaïnal
Concezione e sviluppo : Baudouin d'Aumeries
Co-Programmazione e sviluppo : Marc-Olivier Méhu
Supporto tecnico e logistico : Manuel Goepfert
Aiuto per la traduzione : Arnaldo La Scala

Contatto : metmap@orbifly.com




FONTI E CREDITI :

   NOAA